sensor_id;sensor_type;location;lat;lon;timestamp;P1;durP1;ratioP1;P2;durP2;ratioP2
49223;SDS011;35050;51.316;5.994;2023-03-01T00:01:25;4.93;;;3.03;;
49223;SDS011;35050;51.316;5.994;2023-03-01T00:03:53;3.95;;;2.60;;
49223;SDS011;35050;51.316;5.994;2023-03-01T00:06:20;4.00;;;2.20;;
49223;SDS011;35050;51.316;5.994;2023-03-01T00:08:46;4.28;;;2.90;;
49223;SDS011;35050;51.316;5.994;2023-03-01T00:11:16;3.17;;;2.33;;
49223;SDS011;35050;51.316;5.994;2023-03-01T00:13:43;3.08;;;2.50;;
49223;SDS011;35050;51.316;5.994;2023-03-01T00:16:11;3.47;;;2.30;;
49223;SDS011;35050;51.316;5.994;2023-03-01T00:18:38;3.45;;;2.42;;
49223;SDS011;35050;51.316;5.994;2023-03-01T00:21:04;3.25;;;2.53;;
49223;SDS011;35050;51.316;5.994;2023-03-01T00:23:30;3.53;;;2.25;;
49223;SDS011;35050;51.316;5.994;2023-03-01T00:25:58;4.13;;;2.53;;
49223;SDS011;35050;51.316;5.994;2023-03-01T00:28:23;4.53;;;3.08;;
49223;SDS011;35050;51.316;5.994;2023-03-01T00:30:49;4.45;;;2.42;;
49223;SDS011;35050;51.316;5.994;2023-03-01T00:33:15;4.68;;;2.33;;
49223;SDS011;35050;51.316;5.994;2023-03-01T00:35:40;3.47;;;2.63;;
49223;SDS011;35050;51.316;5.994;2023-03-01T00:38:06;3.55;;;2.55;;
49223;SDS011;35050;51.316;5.994;2023-03-01T00:40:33;3.55;;;2.30;;
49223;SDS011;35050;51.316;5.994;2023-03-01T00:42:59;5.00;;;2.40;;
49223;SDS011;35050;51.316;5.994;2023-03-01T00:45:26;2.90;;;2.45;;
49223;SDS011;35050;51.316;5.994;2023-03-01T00:47:52;2.90;;;2.20;;
49223;SDS011;35050;51.316;5.994;2023-03-01T00:50:18;5.70;;;2.70;;
49223;SDS011;35050;51.316;5.994;2023-03-01T00:52:44;5.07;;;2.97;;
49223;SDS011;35050;51.316;5.994;2023-03-01T00:55:10;2.97;;;2.60;;
49223;SDS011;35050;51.316;5.994;2023-03-01T00:57:36;4.13;;;2.72;;
49223;SDS011;35050;51.316;5.994;2023-03-01T01:00:03;3.00;;;2.50;;
49223;SDS011;35050;51.316;5.994;2023-03-01T01:02:31;3.95;;;2.97;;
49223;SDS011;35050;51.316;5.994;2023-03-01T01:04:58;3.47;;;2.58;;
49223;SDS011;35050;51.316;5.994;2023-03-01T01:07:23;3.20;;;2.60;;
49223;SDS011;35050;51.316;5.994;2023-03-01T01:09:49;3.20;;;2.67;;
49223;SDS011;35050;51.316;5.994;2023-03-01T01:12:15;3.80;;;2.63;;
49223;SDS011;35050;51.316;5.994;2023-03-01T01:14:40;2.75;;;2.53;;
49223;SDS011;35050;51.316;5.994;2023-03-01T01:17:06;4.10;;;2.90;;
49223;SDS011;35050;51.316;5.994;2023-03-01T01:19:31;5.30;;;2.97;;
49223;SDS011;35050;51.316;5.994;2023-03-01T01:21:57;3.83;;;2.88;;
49223;SDS011;35050;51.316;5.994;2023-03-01T01:24:23;3.35;;;2.60;;
49223;SDS011;35050;51.316;5.994;2023-03-01T01:26:48;3.80;;;2.80;;
49223;SDS011;35050;51.316;5.994;2023-03-01T01:29:15;2.72;;;2.30;;
49223;SDS011;35050;51.316;5.994;2023-03-01T01:31:41;3.92;;;2.88;;
49223;SDS011;35050;51.316;5.994;2023-03-01T01:34:08;3.22;;;2.28;;
49223;SDS011;35050;51.316;5.994;2023-03-01T01:36:41;3.33;;;2.30;;
49223;SDS011;35050;51.316;5.994;2023-03-01T01:39:07;3.60;;;2.50;;
49223;SDS011;35050;51.316;5.994;2023-03-01T01:41:32;3.92;;;2.65;;
49223;SDS011;35050;51.316;5.994;2023-03-01T01:44:12;3.88;;;2.40;;
49223;SDS011;35050;51.316;5.994;2023-03-01T01:52:03;3.92;;;2.40;;
49223;SDS011;35050;51.316;5.994;2023-03-01T01:57:34;4.15;;;2.58;;
49223;SDS011;35050;51.316;5.994;2023-03-01T02:00:11;4.65;;;2.85;;
49223;SDS011;35050;51.316;5.994;2023-03-01T02:02:43;3.28;;;2.70;;
49223;SDS011;35050;51.316;5.994;2023-03-01T02:05:12;4.97;;;3.15;;
49223;SDS011;35050;51.316;5.994;2023-03-01T02:07:59;3.17;;;2.70;;
49223;SDS011;35050;51.316;5.994;2023-03-01T02:10:25;3.25;;;2.90;;
49223;SDS011;35050;51.316;5.994;2023-03-01T02:12:52;4.90;;;2.85;;
49223;SDS011;35050;51.316;5.994;2023-03-01T02:15:21;3.83;;;2.67;;
49223;SDS011;35050;51.316;5.994;2023-03-01T02:17:47;3.28;;;2.60;;
49223;SDS011;35050;51.316;5.994;2023-03-01T02:22:55;3.03;;;2.67;;
49223;SDS011;35050;51.316;5.994;2023-03-01T02:30:23;3.92;;;2.70;;
49223;SDS011;35050;51.316;5.994;2023-03-01T02:32:51;3.28;;;2.70;;
49223;SDS011;35050;51.316;5.994;2023-03-01T02:35:17;3.70;;;2.72;;
49223;SDS011;35050;51.316;5.994;2023-03-01T02:37:44;3.97;;;2.85;;
49223;SDS011;35050;51.316;5.994;2023-03-01T02:40:13;3.90;;;2.75;;
49223;SDS011;35050;51.316;5.994;2023-03-01T02:42:55;3.65;;;2.65;;
49223;SDS011;35050;51.316;5.994;2023-03-01T02:45:24;3.20;;;2.55;;
49223;SDS011;35050;51.316;5.994;2023-03-01T02:47:54;4.40;;;3.00;;
49223;SDS011;35050;51.316;5.994;2023-03-01T02:53:01;4.25;;;3.20;;
49223;SDS011;35050;51.316;5.994;2023-03-01T02:55:36;4.35;;;3.40;;
49223;SDS011;35050;51.316;5.994;2023-03-01T02:58:02;4.13;;;3.10;;
49223;SDS011;35050;51.316;5.994;2023-03-01T03:00:30;4.50;;;2.70;;
49223;SDS011;35050;51.316;5.994;2023-03-01T03:03:00;3.15;;;2.65;;
49223;SDS011;35050;51.316;5.994;2023-03-01T03:05:27;3.67;;;3.08;;
49223;SDS011;35050;51.316;5.994;2023-03-01T03:07:55;3.45;;;2.95;;
49223;SDS011;35050;51.316;5.994;2023-03-01T03:10:26;3.47;;;3.00;;
49223;SDS011;35050;51.316;5.994;2023-03-01T03:13:06;3.65;;;2.53;;
49223;SDS011;35050;51.316;5.994;2023-03-01T03:15:34;4.35;;;2.70;;
49223;SDS011;35050;51.316;5.994;2023-03-01T03:18:01;3.95;;;3.00;;
49223;SDS011;35050;51.316;5.994;2023-03-01T03:20:28;6.78;;;2.88;;
49223;SDS011;35050;51.316;5.994;2023-03-01T03:22:55;4.05;;;2.90;;
49223;SDS011;35050;51.316;5.994;2023-03-01T03:25:23;3.67;;;2.92;;
49223;SDS011;35050;51.316;5.994;2023-03-01T03:27:50;5.40;;;3.40;;
49223;SDS011;35050;51.316;5.994;2023-03-01T03:30:32;4.90;;;3.17;;
49223;SDS011;35050;51.316;5.994;2023-03-01T03:32:57;4.40;;;3.35;;
49223;SDS011;35050;51.316;5.994;2023-03-01T03:35:31;4.20;;;3.05;;
49223;SDS011;35050;51.316;5.994;2023-03-01T03:37:59;5.18;;;3.20;;
49223;SDS011;35050;51.316;5.994;2023-03-01T03:40:50;4.88;;;3.22;;
49223;SDS011;35050;51.316;5.994;2023-03-01T03:43:17;6.32;;;3.90;;
49223;SDS011;35050;51.316;5.994;2023-03-01T03:45:44;5.72;;;3.90;;
49223;SDS011;35050;51.316;5.994;2023-03-01T03:48:10;6.82;;;3.50;;
49223;SDS011;35050;51.316;5.994;2023-03-01T03:50:37;5.13;;;3.45;;
49223;SDS011;35050;51.316;5.994;2023-03-01T03:53:04;3.60;;;3.00;;
49223;SDS011;35050;51.316;5.994;2023-03-01T03:55:32;3.60;;;3.13;;
49223;SDS011;35050;51.316;5.994;2023-03-01T03:57:59;3.80;;;2.95;;
49223;SDS011;35050;51.316;5.994;2023-03-01T04:00:32;5.00;;;3.15;;
49223;SDS011;35050;51.316;5.994;2023-03-01T04:03:02;4.45;;;2.88;;
49223;SDS011;35050;51.316;5.994;2023-03-01T04:05:28;4.32;;;3.13;;
49223;SDS011;35050;51.316;5.994;2023-03-01T04:07:54;6.30;;;3.30;;
49223;SDS011;35050;51.316;5.994;2023-03-01T04:10:30;3.10;;;2.80;;
49223;SDS011;35050;51.316;5.994;2023-03-01T04:12:57;4.32;;;2.97;;
49223;SDS011;35050;51.316;5.994;2023-03-01T04:15:23;3.28;;;2.90;;
49223;SDS011;35050;51.316;5.994;2023-03-01T04:17:51;3.53;;;3.10;;
49223;SDS011;35050;51.316;5.994;2023-03-01T04:20:24;4.55;;;3.05;;
49223;SDS011;35050;51.316;5.994;2023-03-01T04:22:59;4.22;;;3.30;;
49223;SDS011;35050;51.316;5.994;2023-03-01T04:25:42;3.90;;;2.92;;
49223;SDS011;35050;51.316;5.994;2023-03-01T04:28:18;3.92;;;2.90;;
49223;SDS011;35050;51.316;5.994;2023-03-01T04:30:52;3.85;;;2.60;;
49223;SDS011;35050;51.316;5.994;2023-03-01T04:33:19;3.58;;;2.60;;
49223;SDS011;35050;51.316;5.994;2023-03-01T04:35:45;4.50;;;3.08;;
49223;SDS011;35050;51.316;5.994;2023-03-01T04:38:14;4.72;;;3.15;;
49223;SDS011;35050;51.316;5.994;2023-03-01T04:40:41;3.95;;;2.80;;
49223;SDS011;35050;51.316;5.994;2023-03-01T04:43:08;5.18;;;3.42;;
49223;SDS011;35050;51.316;5.994;2023-03-01T04:45:35;3.83;;;3.42;;
49223;SDS011;35050;51.316;5.994;2023-03-01T04:48:01;4.72;;;3.50;;
49223;SDS011;35050;51.316;5.994;2023-03-01T04:50:27;4.07;;;3.38;;
49223;SDS011;35050;51.316;5.994;2023-03-01T04:52:54;4.28;;;3.38;;
49223;SDS011;35050;51.316;5.994;2023-03-01T04:55:23;5.38;;;3.35;;
49223;SDS011;35050;51.316;5.994;2023-03-01T04:57:50;5.68;;;3.50;;
49223;SDS011;35050;51.316;5.994;2023-03-01T05:00:16;3.95;;;2.88;;
49223;SDS011;35050;51.316;5.994;2023-03-01T05:02:49;4.15;;;3.10;;
49223;SDS011;35050;51.316;5.994;2023-03-01T05:05:39;5.78;;;3.00;;
49223;SDS011;35050;51.316;5.994;2023-03-01T05:08:07;3.33;;;2.90;;
49223;SDS011;35050;51.316;5.994;2023-03-01T05:10:34;3.42;;;2.80;;
49223;SDS011;35050;51.316;5.994;2023-03-01T05:13:01;4.07;;;3.00;;
49223;SDS011;35050;51.316;5.994;2023-03-01T05:15:28;4.80;;;3.20;;
49223;SDS011;35050;51.316;5.994;2023-03-01T05:17:56;4.50;;;2.92;;
49223;SDS011;35050;51.316;5.994;2023-03-01T05:20:25;4.53;;;3.15;;
49223;SDS011;35050;51.316;5.994;2023-03-01T05:22:55;4.90;;;2.95;;
49223;SDS011;35050;51.316;5.994;2023-03-01T05:25:25;4.80;;;3.42;;
49223;SDS011;35050;51.316;5.994;2023-03-01T05:27:51;5.25;;;3.45;;
49223;SDS011;35050;51.316;5.994;2023-03-01T05:30:17;4.38;;;3.13;;
49223;SDS011;35050;51.316;5.994;2023-03-01T05:32:44;4.15;;;2.97;;
49223;SDS011;35050;51.316;5.994;2023-03-01T05:35:14;4.68;;;3.30;;
49223;SDS011;35050;51.316;5.994;2023-03-01T05:37:42;5.05;;;3.63;;
49223;SDS011;35050;51.316;5.994;2023-03-01T05:40:10;4.15;;;3.22;;
49223;SDS011;35050;51.316;5.994;2023-03-01T05:42:41;4.00;;;3.35;;
49223;SDS011;35050;51.316;5.994;2023-03-01T05:45:08;5.75;;;3.45;;
49223;SDS011;35050;51.316;5.994;2023-03-01T05:47:34;5.10;;;3.50;;
49223;SDS011;35050;51.316;5.994;2023-03-01T05:50:00;4.50;;;3.50;;
49223;SDS011;35050;51.316;5.994;2023-03-01T05:52:26;4.45;;;3.45;;
49223;SDS011;35050;51.316;5.994;2023-03-01T05:54:52;4.80;;;3.55;;
49223;SDS011;35050;51.316;5.994;2023-03-01T05:57:18;6.22;;;3.60;;
49223;SDS011;35050;51.316;5.994;2023-03-01T05:59:43;5.10;;;3.35;;
49223;SDS011;35050;51.316;5.994;2023-03-01T06:02:10;4.57;;;3.47;;
49223;SDS011;35050;51.316;5.994;2023-03-01T06:04:36;4.88;;;3.65;;
49223;SDS011;35050;51.316;5.994;2023-03-01T06:07:01;4.72;;;3.20;;
49223;SDS011;35050;51.316;5.994;2023-03-01T06:09:27;4.95;;;3.67;;
49223;SDS011;35050;51.316;5.994;2023-03-01T06:11:53;5.15;;;3.33;;
49223;SDS011;35050;51.316;5.994;2023-03-01T06:14:18;4.82;;;3.50;;
49223;SDS011;35050;51.316;5.994;2023-03-01T06:16:45;6.82;;;3.65;;
49223;SDS011;35050;51.316;5.994;2023-03-01T06:19:11;5.55;;;3.80;;
49223;SDS011;35050;51.316;5.994;2023-03-01T06:21:37;4.40;;;3.30;;
49223;SDS011;35050;51.316;5.994;2023-03-01T06:24:02;5.60;;;3.38;;
49223;SDS011;35050;51.316;5.994;2023-03-01T06:26:28;4.22;;;3.28;;
49223;SDS011;35050;51.316;5.994;2023-03-01T06:28:54;4.97;;;3.30;;
49223;SDS011;35050;51.316;5.994;2023-03-01T06:31:19;5.22;;;3.70;;
49223;SDS011;35050;51.316;5.994;2023-03-01T06:33:45;5.78;;;3.45;;
49223;SDS011;35050;51.316;5.994;2023-03-01T06:36:11;5.55;;;3.70;;
49223;SDS011;35050;51.316;5.994;2023-03-01T06:38:36;4.68;;;3.20;;
49223;SDS011;35050;51.316;5.994;2023-03-01T06:41:02;4.75;;;3.08;;
49223;SDS011;35050;51.316;5.994;2023-03-01T06:43:28;6.40;;;3.47;;
49223;SDS011;35050;51.316;5.994;2023-03-01T06:45:53;5.13;;;3.58;;
49223;SDS011;35050;51.316;5.994;2023-03-01T06:48:19;4.78;;;3.40;;
49223;SDS011;35050;51.316;5.994;2023-03-01T06:50:45;5.47;;;3.35;;
49223;SDS011;35050;51.316;5.994;2023-03-01T06:53:10;5.47;;;3.33;;
49223;SDS011;35050;51.316;5.994;2023-03-01T06:55:36;5.22;;;3.70;;
49223;SDS011;35050;51.316;5.994;2023-03-01T06:58:02;4.53;;;3.33;;
49223;SDS011;35050;51.316;5.994;2023-03-01T07:00:29;4.47;;;3.20;;
49223;SDS011;35050;51.316;5.994;2023-03-01T07:02:57;6.60;;;3.75;;
49223;SDS011;35050;51.316;5.994;2023-03-01T07:05:24;5.20;;;3.45;;
49223;SDS011;35050;51.316;5.994;2023-03-01T07:07:50;5.30;;;3.72;;
49223;SDS011;35050;51.316;5.994;2023-03-01T07:10:15;7.57;;;3.55;;
49223;SDS011;35050;51.316;5.994;2023-03-01T07:12:41;5.85;;;4.15;;
49223;SDS011;35050;51.316;5.994;2023-03-01T07:15:08;4.68;;;3.58;;
49223;SDS011;35050;51.316;5.994;2023-03-01T07:17:34;4.88;;;3.45;;
49223;SDS011;35050;51.316;5.994;2023-03-01T07:20:00;4.40;;;3.40;;
49223;SDS011;35050;51.316;5.994;2023-03-01T07:22:25;4.78;;;3.58;;
49223;SDS011;35050;51.316;5.994;2023-03-01T07:24:51;6.53;;;4.15;;
49223;SDS011;35050;51.316;5.994;2023-03-01T07:27:16;5.25;;;3.85;;
49223;SDS011;35050;51.316;5.994;2023-03-01T07:29:42;8.05;;;3.83;;
49223;SDS011;35050;51.316;5.994;2023-03-01T07:32:08;5.15;;;3.50;;
49223;SDS011;35050;51.316;5.994;2023-03-01T07:34:34;5.32;;;3.67;;
49223;SDS011;35050;51.316;5.994;2023-03-01T07:37:00;4.75;;;3.45;;
49223;SDS011;35050;51.316;5.994;2023-03-01T07:39:26;7.18;;;4.22;;
49223;SDS011;35050;51.316;5.994;2023-03-01T07:41:52;6.82;;;3.72;;
49223;SDS011;35050;51.316;5.994;2023-03-01T07:44:17;5.07;;;3.55;;
49223;SDS011;35050;51.316;5.994;2023-03-01T07:46:43;5.10;;;3.80;;
49223;SDS011;35050;51.316;5.994;2023-03-01T07:49:09;4.90;;;3.42;;
49223;SDS011;35050;51.316;5.994;2023-03-01T07:51:35;4.32;;;3.67;;
49223;SDS011;35050;51.316;5.994;2023-03-01T07:54:01;7.53;;;4.32;;
49223;SDS011;35050;51.316;5.994;2023-03-01T07:56:26;5.03;;;3.88;;
49223;SDS011;35050;51.316;5.994;2023-03-01T07:58:52;6.32;;;3.83;;
49223;SDS011;35050;51.316;5.994;2023-03-01T08:01:18;6.53;;;4.38;;
49223;SDS011;35050;51.316;5.994;2023-03-01T08:03:45;7.03;;;4.93;;
49223;SDS011;35050;51.316;5.994;2023-03-01T08:06:12;6.95;;;4.80;;
49223;SDS011;35050;51.316;5.994;2023-03-01T08:08:40;6.18;;;4.47;;
49223;SDS011;35050;51.316;5.994;2023-03-01T08:11:09;6.25;;;4.38;;
49223;SDS011;35050;51.316;5.994;2023-03-01T08:13:36;6.43;;;4.45;;
49223;SDS011;35050;51.316;5.994;2023-03-01T08:16:02;6.03;;;4.53;;
49223;SDS011;35050;51.316;5.994;2023-03-01T08:18:29;6.32;;;4.85;;
49223;SDS011;35050;51.316;5.994;2023-03-01T08:20:55;6.30;;;4.30;;
49223;SDS011;35050;51.316;5.994;2023-03-01T08:23:21;6.13;;;4.43;;
49223;SDS011;35050;51.316;5.994;2023-03-01T08:25:46;7.63;;;4.97;;
49223;SDS011;35050;51.316;5.994;2023-03-01T08:28:12;7.90;;;5.03;;
49223;SDS011;35050;51.316;5.994;2023-03-01T08:30:38;7.85;;;4.65;;
49223;SDS011;35050;51.316;5.994;2023-03-01T08:33:03;7.13;;;5.40;;
49223;SDS011;35050;51.316;5.994;2023-03-01T08:35:29;6.45;;;4.57;;
49223;SDS011;35050;51.316;5.994;2023-03-01T08:37:54;6.35;;;5.07;;
49223;SDS011;35050;51.316;5.994;2023-03-01T08:40:20;8.25;;;5.00;;
49223;SDS011;35050;51.316;5.994;2023-03-01T08:42:46;8.55;;;5.63;;
49223;SDS011;35050;51.316;5.994;2023-03-01T08:45:11;6.68;;;5.00;;
49223;SDS011;35050;51.316;5.994;2023-03-01T08:47:39;7.15;;;5.07;;
49223;SDS011;35050;51.316;5.994;2023-03-01T08:50:04;7.25;;;5.25;;
49223;SDS011;35050;51.316;5.994;2023-03-01T08:52:31;9.02;;;5.35;;
49223;SDS011;35050;51.316;5.994;2023-03-01T08:54:58;9.40;;;5.53;;
49223;SDS011;35050;51.316;5.994;2023-03-01T08:57:26;11.02;;;5.78;;
49223;SDS011;35050;51.316;5.994;2023-03-01T08:59:52;9.45;;;5.80;;
49223;SDS011;35050;51.316;5.994;2023-03-01T09:02:18;9.93;;;6.43;;
49223;SDS011;35050;51.316;5.994;2023-03-01T09:04:44;10.82;;;7.00;;
49223;SDS011;35050;51.316;5.994;2023-03-01T09:07:11;9.35;;;6.53;;
49223;SDS011;35050;51.316;5.994;2023-03-01T09:09:36;9.88;;;5.88;;
49223;SDS011;35050;51.316;5.994;2023-03-01T09:12:02;7.85;;;5.75;;
49223;SDS011;35050;51.316;5.994;2023-03-01T09:14:28;10.38;;;6.07;;
49223;SDS011;35050;51.316;5.994;2023-03-01T09:16:54;7.43;;;5.60;;
49223;SDS011;35050;51.316;5.994;2023-03-01T09:19:20;8.27;;;6.22;;
49223;SDS011;35050;51.316;5.994;2023-03-01T09:21:45;7.72;;;5.32;;
49223;SDS011;35050;51.316;5.994;2023-03-01T09:24:17;9.60;;;6.47;;
49223;SDS011;35050;51.316;5.994;2023-03-01T09:26:47;9.02;;;6.65;;
49223;SDS011;35050;51.316;5.994;2023-03-01T09:29:14;11.05;;;7.18;;
49223;SDS011;35050;51.316;5.994;2023-03-01T09:31:41;10.50;;;7.30;;
49223;SDS011;35050;51.316;5.994;2023-03-01T09:34:07;11.80;;;6.63;;
49223;SDS011;35050;51.316;5.994;2023-03-01T09:36:34;9.77;;;6.50;;
49223;SDS011;35050;51.316;5.994;2023-03-01T09:39:00;8.48;;;5.97;;
49223;SDS011;35050;51.316;5.994;2023-03-01T09:46:52;11.35;;;6.97;;
49223;SDS011;35050;51.316;5.994;2023-03-01T09:49:19;15.13;;;8.30;;
49223;SDS011;35050;51.316;5.994;2023-03-01T09:51:54;12.05;;;7.35;;
49223;SDS011;35050;51.316;5.994;2023-03-01T09:54:40;12.47;;;8.37;;
49223;SDS011;35050;51.316;5.994;2023-03-01T09:57:11;9.95;;;7.38;;
49223;SDS011;35050;51.316;5.994;2023-03-01T09:59:47;9.98;;;7.35;;
49223;SDS011;35050;51.316;5.994;2023-03-01T10:05:25;11.40;;;7.88;;
49223;SDS011;35050;51.316;5.994;2023-03-01T10:10:50;10.80;;;7.00;;
49223;SDS011;35050;51.316;5.994;2023-03-01T10:16:12;8.20;;;6.40;;
49223;SDS011;35050;51.316;5.994;2023-03-01T10:18:46;9.43;;;6.53;;
49223;SDS011;35050;51.316;5.994;2023-03-01T10:21:17;11.93;;;6.93;;
49223;SDS011;35050;51.316;5.994;2023-03-01T10:23:44;10.88;;;7.05;;
49223;SDS011;35050;51.316;5.994;2023-03-01T10:26:27;11.18;;;7.20;;
49223;SDS011;35050;51.316;5.994;2023-03-01T10:29:07;10.88;;;7.28;;
49223;SDS011;35050;51.316;5.994;2023-03-01T10:31:42;11.82;;;7.55;;
49223;SDS011;35050;51.316;5.994;2023-03-01T10:34:13;10.40;;;7.75;;
49223;SDS011;35050;51.316;5.994;2023-03-01T10:36:41;9.73;;;6.57;;
49223;SDS011;35050;51.316;5.994;2023-03-01T10:39:16;10.73;;;6.90;;
49223;SDS011;35050;51.316;5.994;2023-03-01T10:42:03;9.13;;;6.85;;
49223;SDS011;35050;51.316;5.994;2023-03-01T10:44:40;9.70;;;6.03;;
49223;SDS011;35050;51.316;5.994;2023-03-01T10:47:32;9.13;;;6.57;;
49223;SDS011;35050;51.316;5.994;2023-03-01T10:49:57;10.10;;;7.45;;
49223;SDS011;35050;51.316;5.994;2023-03-01T10:52:29;9.57;;;6.75;;
49223;SDS011;35050;51.316;5.994;2023-03-01T10:57:40;8.88;;;6.32;;
49223;SDS011;35050;51.316;5.994;2023-03-01T11:00:25;9.13;;;5.45;;
49223;SDS011;35050;51.316;5.994;2023-03-01T11:03:01;8.35;;;5.78;;
49223;SDS011;35050;51.316;5.994;2023-03-01T11:05:35;9.93;;;6.97;;
49223;SDS011;35050;51.316;5.994;2023-03-01T11:08:01;10.80;;;7.85;;
49223;SDS011;35050;51.316;5.994;2023-03-01T11:12:54;11.45;;;6.80;;
49223;SDS011;35050;51.316;5.994;2023-03-01T11:16:03;9.15;;;6.50;;
49223;SDS011;35050;51.316;5.994;2023-03-01T11:18:32;10.82;;;6.88;;
49223;SDS011;35050;51.316;5.994;2023-03-01T11:20:58;11.55;;;6.70;;
49223;SDS011;35050;51.316;5.994;2023-03-01T11:23:25;6.80;;;5.45;;
49223;SDS011;35050;51.316;5.994;2023-03-01T11:26:02;7.50;;;5.72;;
49223;SDS011;35050;51.316;5.994;2023-03-01T11:28:32;10.95;;;6.60;;
49223;SDS011;35050;51.316;5.994;2023-03-01T11:31:02;8.20;;;6.25;;
49223;SDS011;35050;51.316;5.994;2023-03-01T11:38:54;7.95;;;5.57;;
49223;SDS011;35050;51.316;5.994;2023-03-01T11:41:23;7.55;;;4.85;;
49223;SDS011;35050;51.316;5.994;2023-03-01T11:43:54;9.75;;;6.28;;
49223;SDS011;35050;51.316;5.994;2023-03-01T11:54:26;7.72;;;5.30;;
49223;SDS011;35050;51.316;5.994;2023-03-01T11:57:15;9.23;;;5.90;;
49223;SDS011;35050;51.316;5.994;2023-03-01T12:07:58;8.07;;;5.57;;
49223;SDS011;35050;51.316;5.994;2023-03-01T12:26:52;6.00;;;4.50;;
49223;SDS011;35050;51.316;5.994;2023-03-01T12:29:45;7.80;;;4.90;;
49223;SDS011;35050;51.316;5.994;2023-03-01T12:32:35;7.18;;;5.13;;
49223;SDS011;35050;51.316;5.994;2023-03-01T12:37:56;6.78;;;5.10;;
49223;SDS011;35050;51.316;5.994;2023-03-01T12:48:38;6.43;;;4.80;;
49223;SDS011;35050;51.316;5.994;2023-03-01T12:51:24;6.97;;;4.72;;
49223;SDS011;35050;51.316;5.994;2023-03-01T12:53:53;10.93;;;5.25;;
49223;SDS011;35050;51.316;5.994;2023-03-01T12:56:21;6.47;;;4.75;;
49223;SDS011;35050;51.316;5.994;2023-03-01T12:59:09;7.25;;;4.85;;
49223;SDS011;35050;51.316;5.994;2023-03-01T13:01:56;6.28;;;4.50;;
49223;SDS011;35050;51.316;5.994;2023-03-01T13:07:11;10.23;;;4.30;;
49223;SDS011;35050;51.316;5.994;2023-03-01T13:09:46;6.53;;;4.18;;
49223;SDS011;35050;51.316;5.994;2023-03-01T13:18:02;4.90;;;3.50;;
49223;SDS011;35050;51.316;5.994;2023-03-01T13:20:33;5.43;;;3.53;;
49223;SDS011;35050;51.316;5.994;2023-03-01T13:23:23;4.40;;;3.35;;
49223;SDS011;35050;51.316;5.994;2023-03-01T13:38:57;4.60;;;3.28;;
49223;SDS011;35050;51.316;5.994;2023-03-01T13:46:45;5.15;;;3.53;;
49223;SDS011;35050;51.316;5.994;2023-03-01T13:49:13;5.55;;;3.78;;
49223;SDS011;35050;51.316;5.994;2023-03-01T13:51:42;4.55;;;3.10;;
49223;SDS011;35050;51.316;5.994;2023-03-01T13:54:12;5.03;;;3.20;;
49223;SDS011;35050;51.316;5.994;2023-03-01T13:56:39;6.05;;;3.53;;
49223;SDS011;35050;51.316;5.994;2023-03-01T13:59:26;4.05;;;3.10;;
49223;SDS011;35050;51.316;5.994;2023-03-01T14:01:58;4.82;;;3.30;;
49223;SDS011;35050;51.316;5.994;2023-03-01T14:06:52;4.43;;;3.63;;
49223;SDS011;35050;51.316;5.994;2023-03-01T14:09:33;4.88;;;3.45;;
49223;SDS011;35050;51.316;5.994;2023-03-01T14:15:25;5.25;;;3.25;;
49223;SDS011;35050;51.316;5.994;2023-03-01T14:18:35;5.80;;;3.47;;
49223;SDS011;35050;51.316;5.994;2023-03-01T14:20:54;4.53;;;3.25;;
49223;SDS011;35050;51.316;5.994;2023-03-01T14:23:21;4.80;;;3.53;;
49223;SDS011;35050;51.316;5.994;2023-03-01T14:25:49;5.43;;;3.80;;
49223;SDS011;35050;51.316;5.994;2023-03-01T14:30:52;3.80;;;3.08;;
49223;SDS011;35050;51.316;5.994;2023-03-01T14:36:03;5.32;;;3.75;;
49223;SDS011;35050;51.316;5.994;2023-03-01T14:38:46;5.20;;;3.25;;
49223;SDS011;35050;51.316;5.994;2023-03-01T14:41:13;4.28;;;3.17;;
49223;SDS011;35050;51.316;5.994;2023-03-01T14:43:43;6.00;;;3.42;;
49223;SDS011;35050;51.316;5.994;2023-03-01T14:46:19;5.25;;;3.17;;
49223;SDS011;35050;51.316;5.994;2023-03-01T14:48:48;4.97;;;3.33;;
49223;SDS011;35050;51.316;5.994;2023-03-01T14:51:16;5.40;;;3.67;;
49223;SDS011;35050;51.316;5.994;2023-03-01T14:53:41;4.20;;;3.28;;
49223;SDS011;35050;51.316;5.994;2023-03-01T14:56:12;6.82;;;3.00;;
49223;SDS011;35050;51.316;5.994;2023-03-01T14:58:39;4.00;;;3.47;;
49223;SDS011;35050;51.316;5.994;2023-03-01T15:01:05;5.15;;;3.60;;
49223;SDS011;35050;51.316;5.994;2023-03-01T15:03:43;4.93;;;3.60;;
49223;SDS011;35050;51.316;5.994;2023-03-01T15:06:12;4.53;;;3.35;;
49223;SDS011;35050;51.316;5.994;2023-03-01T15:08:42;4.53;;;3.25;;
49223;SDS011;35050;51.316;5.994;2023-03-01T15:11:24;4.60;;;3.58;;
49223;SDS011;35050;51.316;5.994;2023-03-01T15:13:53;5.22;;;3.20;;
49223;SDS011;35050;51.316;5.994;2023-03-01T15:16:40;5.47;;;4.10;;
49223;SDS011;35050;51.316;5.994;2023-03-01T15:19:06;5.88;;;4.38;;
49223;SDS011;35050;51.316;5.994;2023-03-01T15:21:36;5.32;;;4.18;;
49223;SDS011;35050;51.316;5.994;2023-03-01T15:24:07;5.13;;;3.80;;
49223;SDS011;35050;51.316;5.994;2023-03-01T15:26:51;5.00;;;3.70;;
49223;SDS011;35050;51.316;5.994;2023-03-01T15:29:27;5.22;;;3.97;;
49223;SDS011;35050;51.316;5.994;2023-03-01T15:34:33;6.50;;;4.90;;
49223;SDS011;35050;51.316;5.994;2023-03-01T15:37:02;5.97;;;3.90;;
49223;SDS011;35050;51.316;5.994;2023-03-01T15:42:05;5.18;;;3.80;;
49223;SDS011;35050;51.316;5.994;2023-03-01T15:44:49;5.85;;;4.07;;
49223;SDS011;35050;51.316;5.994;2023-03-01T15:47:28;6.60;;;3.97;;
49223;SDS011;35050;51.316;5.994;2023-03-01T15:49:55;4.75;;;3.80;;
49223;SDS011;35050;51.316;5.994;2023-03-01T15:52:27;4.70;;;3.38;;
49223;SDS011;35050;51.316;5.994;2023-03-01T15:54:59;5.35;;;3.47;;
49223;SDS011;35050;51.316;5.994;2023-03-01T15:57:28;4.80;;;3.22;;
49223;SDS011;35050;51.316;5.994;2023-03-01T15:59:53;5.72;;;4.30;;
49223;SDS011;35050;51.316;5.994;2023-03-01T16:02:19;5.20;;;4.25;;
49223;SDS011;35050;51.316;5.994;2023-03-01T16:04:46;5.25;;;3.72;;
49223;SDS011;35050;51.316;5.994;2023-03-01T16:07:13;5.13;;;3.80;;
49223;SDS011;35050;51.316;5.994;2023-03-01T16:09:40;5.63;;;4.60;;
49223;SDS011;35050;51.316;5.994;2023-03-01T16:12:08;5.50;;;3.90;;
49223;SDS011;35050;51.316;5.994;2023-03-01T16:14:39;6.53;;;4.55;;
49223;SDS011;35050;51.316;5.994;2023-03-01T16:17:05;5.35;;;4.10;;
49223;SDS011;35050;51.316;5.994;2023-03-01T16:19:32;5.15;;;3.97;;
49223;SDS011;35050;51.316;5.994;2023-03-01T16:21:58;5.53;;;4.10;;
49223;SDS011;35050;51.316;5.994;2023-03-01T16:24:23;5.55;;;4.53;;
49223;SDS011;35050;51.316;5.994;2023-03-01T16:26:51;4.28;;;3.47;;
49223;SDS011;35050;51.316;5.994;2023-03-01T16:29:16;5.50;;;4.07;;
49223;SDS011;35050;51.316;5.994;2023-03-01T16:31:42;6.95;;;4.45;;
49223;SDS011;35050;51.316;5.994;2023-03-01T16:34:07;6.25;;;4.75;;
49223;SDS011;35050;51.316;5.994;2023-03-01T16:36:33;7.25;;;5.18;;
49223;SDS011;35050;51.316;5.994;2023-03-01T16:38:59;9.30;;;5.70;;
49223;SDS011;35050;51.316;5.994;2023-03-01T16:41:25;19.35;;;11.50;;
49223;SDS011;35050;51.316;5.994;2023-03-01T16:43:52;15.73;;;9.77;;
49223;SDS011;35050;51.316;5.994;2023-03-01T16:46:19;17.30;;;10.35;;
49223;SDS011;35050;51.316;5.994;2023-03-01T16:48:47;17.75;;;9.40;;
49223;SDS011;35050;51.316;5.994;2023-03-01T16:51:13;30.05;;;14.57;;
49223;SDS011;35050;51.316;5.994;2023-03-01T16:53:39;31.13;;;17.70;;
49223;SDS011;35050;51.316;5.994;2023-03-01T16:56:06;27.85;;;15.57;;
49223;SDS011;35050;51.316;5.994;2023-03-01T16:58:35;21.05;;;12.05;;
49223;SDS011;35050;51.316;5.994;2023-03-01T17:01:17;16.65;;;9.88;;
49223;SDS011;35050;51.316;5.994;2023-03-01T17:03:45;12.15;;;7.65;;
49223;SDS011;35050;51.316;5.994;2023-03-01T17:06:13;10.80;;;7.13;;
49223;SDS011;35050;51.316;5.994;2023-03-01T17:08:41;10.00;;;6.97;;